sensor_id;sensor_type;location;lat;lon;timestamp;temperature;humidity
3996;DHT22;2012;49.794;9.722;2022-08-19T00:01:42;22.30;99.90
3996;DHT22;2012;49.794;9.722;2022-08-19T00:04:12;22.30;99.90
3996;DHT22;2012;49.794;9.722;2022-08-19T00:06:42;22.20;99.90
3996;DHT22;2012;49.794;9.722;2022-08-19T00:09:12;22.20;99.90
3996;DHT22;2012;49.794;9.722;2022-08-19T00:11:39;22.30;99.90
3996;DHT22;2012;49.794;9.722;2022-08-19T00:14:08;22.30;99.90
3996;DHT22;2012;49.794;9.722;2022-08-19T00:16:37;22.20;99.90
3996;DHT22;2012;49.794;9.722;2022-08-19T00:19:05;22.00;99.90
3996;DHT22;2012;49.794;9.722;2022-08-19T00:21:32;22.00;99.90
3996;DHT22;2012;49.794;9.722;2022-08-19T00:23:59;21.90;99.90
3996;DHT22;2012;49.794;9.722;2022-08-19T00:26:27;21.90;99.90
3996;DHT22;2012;49.794;9.722;2022-08-19T00:28:54;22.00;99.90
3996;DHT22;2012;49.794;9.722;2022-08-19T00:31:21;22.10;99.90
3996;DHT22;2012;49.794;9.722;2022-08-19T00:33:48;22.00;99.90
3996;DHT22;2012;49.794;9.722;2022-08-19T00:36:16;21.90;99.90
3996;DHT22;2012;49.794;9.722;2022-08-19T00:38:43;22.00;99.90
3996;DHT22;2012;49.794;9.722;2022-08-19T00:41:14;22.00;99.90
3996;DHT22;2012;49.794;9.722;2022-08-19T00:43:41;21.90;99.90
3996;DHT22;2012;49.794;9.722;2022-08-19T00:46:08;21.90;99.90
3996;DHT22;2012;49.794;9.722;2022-08-19T00:48:35;21.80;99.90
3996;DHT22;2012;49.794;9.722;2022-08-19T00:51:04;21.80;99.90
3996;DHT22;2012;49.794;9.722;2022-08-19T00:53:32;21.80;99.90
3996;DHT22;2012;49.794;9.722;2022-08-19T00:56:01;21.80;99.90
3996;DHT22;2012;49.794;9.722;2022-08-19T00:58:31;21.70;99.90
3996;DHT22;2012;49.794;9.722;2022-08-19T01:00:59;21.80;99.90
3996;DHT22;2012;49.794;9.722;2022-08-19T01:03:27;21.80;99.90
3996;DHT22;2012;49.794;9.722;2022-08-19T01:05:54;21.80;99.90
3996;DHT22;2012;49.794;9.722;2022-08-19T01:08:22;21.60;99.90
3996;DHT22;2012;49.794;9.722;2022-08-19T01:10:55;21.60;99.90
3996;DHT22;2012;49.794;9.722;2022-08-19T01:13:25;21.70;99.90
3996;DHT22;2012;49.794;9.722;2022-08-19T01:15:59;21.70;99.90
3996;DHT22;2012;49.794;9.722;2022-08-19T01:18:28;21.70;99.90
3996;DHT22;2012;49.794;9.722;2022-08-19T01:20:58;21.70;99.90
3996;DHT22;2012;49.794;9.722;2022-08-19T01:23:27;21.80;99.90
3996;DHT22;2012;49.794;9.722;2022-08-19T01:26:15;21.80;99.90
3996;DHT22;2012;49.794;9.722;2022-08-19T01:28:44;21.70;99.90
3996;DHT22;2012;49.794;9.722;2022-08-19T01:31:29;21.60;99.90
3996;DHT22;2012;49.794;9.722;2022-08-19T01:34:00;21.60;99.90
3996;DHT22;2012;49.794;9.722;2022-08-19T01:36:33;21.60;99.90
3996;DHT22;2012;49.794;9.722;2022-08-19T01:39:04;21.40;99.90
3996;DHT22;2012;49.794;9.722;2022-08-19T01:41:31;21.30;99.90
3996;DHT22;2012;49.794;9.722;2022-08-19T01:43:58;21.30;99.90
3996;DHT22;2012;49.794;9.722;2022-08-19T01:46:44;21.30;99.90
3996;DHT22;2012;49.794;9.722;2022-08-19T01:49:11;21.30;99.90
3996;DHT22;2012;49.794;9.722;2022-08-19T01:51:38;21.40;99.90
3996;DHT22;2012;49.794;9.722;2022-08-19T01:54:07;21.30;99.90
3996;DHT22;2012;49.794;9.722;2022-08-19T01:56:34;21.30;99.90
3996;DHT22;2012;49.794;9.722;2022-08-19T01:59:03;21.30;99.90
3996;DHT22;2012;49.794;9.722;2022-08-19T02:01:31;21.30;99.90
3996;DHT22;2012;49.794;9.722;2022-08-19T02:03:59;21.20;99.90
3996;DHT22;2012;49.794;9.722;2022-08-19T02:06:28;21.10;99.90
3996;DHT22;2012;49.794;9.722;2022-08-19T02:08:55;21.00;99.90
3996;DHT22;2012;49.794;9.722;2022-08-19T02:11:26;20.90;99.90
3996;DHT22;2012;49.794;9.722;2022-08-19T02:13:54;20.90;99.90
3996;DHT22;2012;49.794;9.722;2022-08-19T02:16:21;21.00;99.90
3996;DHT22;2012;49.794;9.722;2022-08-19T02:18:48;21.10;99.90
3996;DHT22;2012;49.794;9.722;2022-08-19T02:21:17;21.10;99.90
3996;DHT22;2012;49.794;9.722;2022-08-19T02:23:45;21.20;99.90
3996;DHT22;2012;49.794;9.722;2022-08-19T02:26:12;21.30;99.90
3996;DHT22;2012;49.794;9.722;2022-08-19T02:28:40;21.20;99.90
3996;DHT22;2012;49.794;9.722;2022-08-19T02:31:15;21.00;99.90
3996;DHT22;2012;49.794;9.722;2022-08-19T02:33:42;21.00;99.90
3996;DHT22;2012;49.794;9.722;2022-08-19T02:36:10;20.90;99.90
3996;DHT22;2012;49.794;9.722;2022-08-19T02:38:37;20.90;99.90
3996;DHT22;2012;49.794;9.722;2022-08-19T02:41:07;20.80;99.90
3996;DHT22;2012;49.794;9.722;2022-08-19T02:43:36;20.70;99.90
3996;DHT22;2012;49.794;9.722;2022-08-19T02:46:24;20.60;99.90
3996;DHT22;2012;49.794;9.722;2022-08-19T02:48:55;20.60;99.90
3996;DHT22;2012;49.794;9.722;2022-08-19T02:51:42;20.70;99.90
3996;DHT22;2012;49.794;9.722;2022-08-19T02:54:11;20.60;99.90
3996;DHT22;2012;49.794;9.722;2022-08-19T02:56:40;20.30;99.90
3996;DHT22;2012;49.794;9.722;2022-08-19T02:59:07;20.40;99.90
3996;DHT22;2012;49.794;9.722;2022-08-19T03:01:39;20.40;99.90
3996;DHT22;2012;49.794;9.722;2022-08-19T03:04:08;20.50;99.90
3996;DHT22;2012;49.794;9.722;2022-08-19T03:06:37;20.60;99.90
3996;DHT22;2012;49.794;9.722;2022-08-19T03:09:04;20.50;99.90
3996;DHT22;2012;49.794;9.722;2022-08-19T03:11:32;20.40;99.90
3996;DHT22;2012;49.794;9.722;2022-08-19T03:14:00;20.40;99.90
3996;DHT22;2012;49.794;9.722;2022-08-19T03:16:29;20.40;99.90
3996;DHT22;2012;49.794;9.722;2022-08-19T03:19:00;20.30;99.90
3996;DHT22;2012;49.794;9.722;2022-08-19T03:21:29;20.30;99.90
3996;DHT22;2012;49.794;9.722;2022-08-19T03:23:59;20.20;99.90
3996;DHT22;2012;49.794;9.722;2022-08-19T03:26:27;20.10;99.90
3996;DHT22;2012;49.794;9.722;2022-08-19T03:28:53;20.20;99.90
3996;DHT22;2012;49.794;9.722;2022-08-19T03:31:25;20.20;99.90
3996;DHT22;2012;49.794;9.722;2022-08-19T03:34:17;20.10;99.90
3996;DHT22;2012;49.794;9.722;2022-08-19T03:36:45;20.10;99.90
3996;DHT22;2012;49.794;9.722;2022-08-19T03:39:12;20.10;99.90
3996;DHT22;2012;49.794;9.722;2022-08-19T03:41:41;20.10;99.90
3996;DHT22;2012;49.794;9.722;2022-08-19T03:44:17;20.10;99.90
3996;DHT22;2012;49.794;9.722;2022-08-19T03:46:47;20.20;99.90
3996;DHT22;2012;49.794;9.722;2022-08-19T03:49:14;20.20;99.90
3996;DHT22;2012;49.794;9.722;2022-08-19T03:51:44;20.10;99.90
3996;DHT22;2012;49.794;9.722;2022-08-19T03:54:13;20.20;99.90
3996;DHT22;2012;49.794;9.722;2022-08-19T03:56:42;20.30;99.90
3996;DHT22;2012;49.794;9.722;2022-08-19T03:59:15;20.30;99.90
3996;DHT22;2012;49.794;9.722;2022-08-19T04:01:42;20.20;99.90
3996;DHT22;2012;49.794;9.722;2022-08-19T04:04:09;20.10;99.90
3996;DHT22;2012;49.794;9.722;2022-08-19T04:06:38;20.00;99.90
3996;DHT22;2012;49.794;9.722;2022-08-19T04:09:08;20.00;99.90
3996;DHT22;2012;49.794;9.722;2022-08-19T04:11:52;20.00;99.90
3996;DHT22;2012;49.794;9.722;2022-08-19T04:14:28;19.90;99.90
3996;DHT22;2012;49.794;9.722;2022-08-19T04:16:58;19.90;99.90
3996;DHT22;2012;49.794;9.722;2022-08-19T04:19:26;20.00;99.90
3996;DHT22;2012;49.794;9.722;2022-08-19T04:21:54;20.00;99.90
3996;DHT22;2012;49.794;9.722;2022-08-19T04:24:22;20.00;99.90
3996;DHT22;2012;49.794;9.722;2022-08-19T04:26:50;20.00;99.90
3996;DHT22;2012;49.794;9.722;2022-08-19T04:29:20;20.10;99.90
3996;DHT22;2012;49.794;9.722;2022-08-19T04:31:48;20.10;99.90
3996;DHT22;2012;49.794;9.722;2022-08-19T04:34:17;20.10;99.90
3996;DHT22;2012;49.794;9.722;2022-08-19T04:36:45;20.10;99.90
3996;DHT22;2012;49.794;9.722;2022-08-19T04:39:16;20.10;99.90
3996;DHT22;2012;49.794;9.722;2022-08-19T04:41:44;20.10;99.90
3996;DHT22;2012;49.794;9.722;2022-08-19T04:44:34;20.20;99.90
3996;DHT22;2012;49.794;9.722;2022-08-19T04:47:03;20.20;99.90
3996;DHT22;2012;49.794;9.722;2022-08-19T04:49:37;20.10;99.90
3996;DHT22;2012;49.794;9.722;2022-08-19T04:52:04;20.10;99.90
3996;DHT22;2012;49.794;9.722;2022-08-19T04:54:30;20.10;99.90
3996;DHT22;2012;49.794;9.722;2022-08-19T04:57:08;20.20;99.90
3996;DHT22;2012;49.794;9.722;2022-08-19T04:59:38;20.30;99.90
3996;DHT22;2012;49.794;9.722;2022-08-19T05:02:07;20.30;99.90
3996;DHT22;2012;49.794;9.722;2022-08-19T05:04:35;20.30;99.90
3996;DHT22;2012;49.794;9.722;2022-08-19T05:07:07;20.30;99.90
3996;DHT22;2012;49.794;9.722;2022-08-19T05:09:34;20.40;99.90
3996;DHT22;2012;49.794;9.722;2022-08-19T05:12:21;20.30;99.90
3996;DHT22;2012;49.794;9.722;2022-08-19T05:14:54;20.30;99.90
3996;DHT22;2012;49.794;9.722;2022-08-19T05:17:23;20.30;99.90
3996;DHT22;2012;49.794;9.722;2022-08-19T05:19:54;20.30;99.90
3996;DHT22;2012;49.794;9.722;2022-08-19T05:22:41;20.40;99.90
3996;DHT22;2012;49.794;9.722;2022-08-19T05:25:12;20.40;99.90
3996;DHT22;2012;49.794;9.722;2022-08-19T05:27:40;20.50;99.90
3996;DHT22;2012;49.794;9.722;2022-08-19T05:30:08;20.50;99.90
3996;DHT22;2012;49.794;9.722;2022-08-19T05:32:35;20.50;99.90
3996;DHT22;2012;49.794;9.722;2022-08-19T05:35:03;20.50;99.90
3996;DHT22;2012;49.794;9.722;2022-08-19T05:37:30;20.50;99.90
3996;DHT22;2012;49.794;9.722;2022-08-19T05:39:57;20.60;99.90
3996;DHT22;2012;49.794;9.722;2022-08-19T05:42:23;20.40;99.90
3996;DHT22;2012;49.794;9.722;2022-08-19T05:44:51;20.20;99.90
3996;DHT22;2012;49.794;9.722;2022-08-19T05:47:18;20.30;99.90
3996;DHT22;2012;49.794;9.722;2022-08-19T05:49:47;20.40;99.90
3996;DHT22;2012;49.794;9.722;2022-08-19T05:52:15;20.50;99.90
3996;DHT22;2012;49.794;9.722;2022-08-19T05:54:44;20.60;99.90
3996;DHT22;2012;49.794;9.722;2022-08-19T05:57:17;20.60;99.90
3996;DHT22;2012;49.794;9.722;2022-08-19T05:59:45;20.70;99.90
3996;DHT22;2012;49.794;9.722;2022-08-19T06:02:14;20.70;99.90
3996;DHT22;2012;49.794;9.722;2022-08-19T06:04:41;20.70;99.90
3996;DHT22;2012;49.794;9.722;2022-08-19T06:07:09;20.80;99.90
3996;DHT22;2012;49.794;9.722;2022-08-19T06:09:38;20.80;99.90
3996;DHT22;2012;49.794;9.722;2022-08-19T06:12:05;20.80;99.90
3996;DHT22;2012;49.794;9.722;2022-08-19T06:14:34;20.90;99.90
3996;DHT22;2012;49.794;9.722;2022-08-19T06:17:05;20.90;99.90
3996;DHT22;2012;49.794;9.722;2022-08-19T06:19:33;21.00;99.90
3996;DHT22;2012;49.794;9.722;2022-08-19T06:22:06;21.10;99.90
3996;DHT22;2012;49.794;9.722;2022-08-19T06:24:34;21.30;99.90
3996;DHT22;2012;49.794;9.722;2022-08-19T06:27:03;21.40;99.90
3996;DHT22;2012;49.794;9.722;2022-08-19T06:29:32;21.50;99.90
3996;DHT22;2012;49.794;9.722;2022-08-19T06:32:01;21.50;99.90
3996;DHT22;2012;49.794;9.722;2022-08-19T06:34:32;21.40;99.90
3996;DHT22;2012;49.794;9.722;2022-08-19T06:37:00;21.50;99.90
3996;DHT22;2012;49.794;9.722;2022-08-19T06:39:33;21.60;99.90
3996;DHT22;2012;49.794;9.722;2022-08-19T06:42:03;21.60;99.90
3996;DHT22;2012;49.794;9.722;2022-08-19T06:44:37;21.60;99.90
3996;DHT22;2012;49.794;9.722;2022-08-19T06:47:12;21.60;99.90
3996;DHT22;2012;49.794;9.722;2022-08-19T06:49:40;21.60;99.90
3996;DHT22;2012;49.794;9.722;2022-08-19T06:52:07;21.60;99.90
3996;DHT22;2012;49.794;9.722;2022-08-19T06:54:40;21.70;99.90
3996;DHT22;2012;49.794;9.722;2022-08-19T06:57:21;21.80;99.90
3996;DHT22;2012;49.794;9.722;2022-08-19T06:59:48;21.70;99.90
3996;DHT22;2012;49.794;9.722;2022-08-19T07:02:15;21.70;99.90
3996;DHT22;2012;49.794;9.722;2022-08-19T07:04:45;21.80;99.90
3996;DHT22;2012;49.794;9.722;2022-08-19T07:07:14;21.80;99.90
3996;DHT22;2012;49.794;9.722;2022-08-19T07:09:46;21.80;99.90
3996;DHT22;2012;49.794;9.722;2022-08-19T07:12:30;21.90;99.90
3996;DHT22;2012;49.794;9.722;2022-08-19T07:15:01;21.90;99.90
3996;DHT22;2012;49.794;9.722;2022-08-19T07:17:28;21.90;99.90
3996;DHT22;2012;49.794;9.722;2022-08-19T07:19:56;21.90;99.90
3996;DHT22;2012;49.794;9.722;2022-08-19T07:22:31;21.90;99.90
3996;DHT22;2012;49.794;9.722;2022-08-19T07:24:59;21.90;99.90
3996;DHT22;2012;49.794;9.722;2022-08-19T07:27:26;22.00;99.90
3996;DHT22;2012;49.794;9.722;2022-08-19T07:29:53;21.90;99.90
3996;DHT22;2012;49.794;9.722;2022-08-19T07:32:23;21.90;99.90
3996;DHT22;2012;49.794;9.722;2022-08-19T07:34:50;21.90;99.90
3996;DHT22;2012;49.794;9.722;2022-08-19T07:37:17;21.90;99.90
3996;DHT22;2012;49.794;9.722;2022-08-19T07:39:44;21.90;99.90
3996;DHT22;2012;49.794;9.722;2022-08-19T07:42:11;22.00;99.90
3996;DHT22;2012;49.794;9.722;2022-08-19T07:44:40;22.10;99.90
3996;DHT22;2012;49.794;9.722;2022-08-19T07:47:07;22.10;99.90
3996;DHT22;2012;49.794;9.722;2022-08-19T07:49:54;22.10;99.90
3996;DHT22;2012;49.794;9.722;2022-08-19T07:52:21;22.10;99.90
3996;DHT22;2012;49.794;9.722;2022-08-19T07:54:48;22.20;99.90
3996;DHT22;2012;49.794;9.722;2022-08-19T07:57:16;22.20;99.90
3996;DHT22;2012;49.794;9.722;2022-08-19T07:59:43;22.30;99.90
3996;DHT22;2012;49.794;9.722;2022-08-19T08:02:10;22.40;99.90
3996;DHT22;2012;49.794;9.722;2022-08-19T08:04:37;22.40;99.90
3996;DHT22;2012;49.794;9.722;2022-08-19T08:07:22;22.40;99.90
3996;DHT22;2012;49.794;9.722;2022-08-19T08:10:12;22.30;99.90
3996;DHT22;2012;49.794;9.722;2022-08-19T08:12:47;22.30;99.90
3996;DHT22;2012;49.794;9.722;2022-08-19T08:15:33;22.40;99.90
3996;DHT22;2012;49.794;9.722;2022-08-19T08:18:07;22.40;99.90
3996;DHT22;2012;49.794;9.722;2022-08-19T08:20:34;22.50;99.90
3996;DHT22;2012;49.794;9.722;2022-08-19T08:23:01;22.40;99.90
3996;DHT22;2012;49.794;9.722;2022-08-19T08:25:46;22.40;99.90
3996;DHT22;2012;49.794;9.722;2022-08-19T08:28:16;22.50;99.90
3996;DHT22;2012;49.794;9.722;2022-08-19T08:30:44;22.50;99.90
3996;DHT22;2012;49.794;9.722;2022-08-19T08:33:13;22.50;99.90
3996;DHT22;2012;49.794;9.722;2022-08-19T08:35:45;22.50;99.90
3996;DHT22;2012;49.794;9.722;2022-08-19T08:38:12;22.60;99.90
3996;DHT22;2012;49.794;9.722;2022-08-19T08:40:47;22.60;99.90
3996;DHT22;2012;49.794;9.722;2022-08-19T08:43:35;22.70;99.90
3996;DHT22;2012;49.794;9.722;2022-08-19T08:49:02;22.80;99.90
3996;DHT22;2012;49.794;9.722;2022-08-19T08:51:47;22.80;99.90
3996;DHT22;2012;49.794;9.722;2022-08-19T08:54:30;22.90;99.90
3996;DHT22;2012;49.794;9.722;2022-08-19T08:57:01;22.90;99.90
3996;DHT22;2012;49.794;9.722;2022-08-19T08:59:35;22.90;99.90
3996;DHT22;2012;49.794;9.722;2022-08-19T09:02:03;22.90;99.90
3996;DHT22;2012;49.794;9.722;2022-08-19T09:04:30;22.90;99.90
3996;DHT22;2012;49.794;9.722;2022-08-19T09:10:22;22.90;99.90
3996;DHT22;2012;49.794;9.722;2022-08-19T09:13:05;23.00;99.90
3996;DHT22;2012;49.794;9.722;2022-08-19T09:15:41;23.00;99.90
3996;DHT22;2012;49.794;9.722;2022-08-19T09:18:09;23.00;99.90
3996;DHT22;2012;49.794;9.722;2022-08-19T09:20:45;23.00;99.90
3996;DHT22;2012;49.794;9.722;2022-08-19T09:23:14;23.00;99.90
3996;DHT22;2012;49.794;9.722;2022-08-19T09:25:41;23.00;99.90
3996;DHT22;2012;49.794;9.722;2022-08-19T09:28:08;23.00;99.90
3996;DHT22;2012;49.794;9.722;2022-08-19T09:30:52;23.00;99.90
3996;DHT22;2012;49.794;9.722;2022-08-19T09:33:19;23.00;99.90
3996;DHT22;2012;49.794;9.722;2022-08-19T09:35:46;23.00;99.90
3996;DHT22;2012;49.794;9.722;2022-08-19T09:38:20;23.00;99.90
3996;DHT22;2012;49.794;9.722;2022-08-19T09:40:46;23.00;99.90
3996;DHT22;2012;49.794;9.722;2022-08-19T09:43:13;23.00;99.90
3996;DHT22;2012;49.794;9.722;2022-08-19T09:45:40;22.90;99.90
3996;DHT22;2012;49.794;9.722;2022-08-19T09:48:07;22.80;99.90
3996;DHT22;2012;49.794;9.722;2022-08-19T09:50:37;22.80;99.90
3996;DHT22;2012;49.794;9.722;2022-08-19T09:53:18;22.80;99.90
3996;DHT22;2012;49.794;9.722;2022-08-19T09:55:44;22.90;99.90
3996;DHT22;2012;49.794;9.722;2022-08-19T09:58:11;22.80;99.90
3996;DHT22;2012;49.794;9.722;2022-08-19T10:00:38;22.80;99.90
3996;DHT22;2012;49.794;9.722;2022-08-19T10:03:05;22.90;99.90
3996;DHT22;2012;49.794;9.722;2022-08-19T10:05:34;22.80;99.90
3996;DHT22;2012;49.794;9.722;2022-08-19T10:08:30;22.90;99.90
3996;DHT22;2012;49.794;9.722;2022-08-19T10:10:58;23.00;99.90
3996;DHT22;2012;49.794;9.722;2022-08-19T10:13:45;23.00;99.90
3996;DHT22;2012;49.794;9.722;2022-08-19T10:16:15;23.10;99.90
3996;DHT22;2012;49.794;9.722;2022-08-19T10:18:42;23.10;99.90
3996;DHT22;2012;49.794;9.722;2022-08-19T10:21:24;23.20;99.90
3996;DHT22;2012;49.794;9.722;2022-08-19T10:23:54;23.20;99.90
3996;DHT22;2012;49.794;9.722;2022-08-19T10:26:29;23.20;99.90
3996;DHT22;2012;49.794;9.722;2022-08-19T10:28:57;23.20;99.90
3996;DHT22;2012;49.794;9.722;2022-08-19T10:31:27;23.20;99.90
3996;DHT22;2012;49.794;9.722;2022-08-19T10:34:15;23.10;99.90
3996;DHT22;2012;49.794;9.722;2022-08-19T10:36:53;23.10;99.90
3996;DHT22;2012;49.794;9.722;2022-08-19T10:39:27;23.10;99.90
3996;DHT22;2012;49.794;9.722;2022-08-19T10:42:06;23.10;99.90
3996;DHT22;2012;49.794;9.722;2022-08-19T10:44:33;23.10;99.90
3996;DHT22;2012;49.794;9.722;2022-08-19T10:47:03;23.20;99.90
3996;DHT22;2012;49.794;9.722;2022-08-19T10:49:43;23.20;99.90
3996;DHT22;2012;49.794;9.722;2022-08-19T10:52:28;23.20;99.90
3996;DHT22;2012;49.794;9.722;2022-08-19T10:55:05;23.50;99.90
3996;DHT22;2012;49.794;9.722;2022-08-19T10:57:55;23.60;99.90
3996;DHT22;2012;49.794;9.722;2022-08-19T11:00:28;23.70;99.90
3996;DHT22;2012;49.794;9.722;2022-08-19T11:02:57;23.80;99.90
3996;DHT22;2012;49.794;9.722;2022-08-19T11:05:24;23.90;99.90
3996;DHT22;2012;49.794;9.722;2022-08-19T11:07:50;23.90;99.90
3996;DHT22;2012;49.794;9.722;2022-08-19T11:10:19;23.90;99.90
3996;DHT22;2012;49.794;9.722;2022-08-19T11:12:47;23.90;99.90
3996;DHT22;2012;49.794;9.722;2022-08-19T11:15:15;23.90;99.90
3996;DHT22;2012;49.794;9.722;2022-08-19T11:17:42;23.90;99.90
3996;DHT22;2012;49.794;9.722;2022-08-19T11:20:13;23.90;99.90
3996;DHT22;2012;49.794;9.722;2022-08-19T11:22:41;24.00;99.90
3996;DHT22;2012;49.794;9.722;2022-08-19T11:25:10;24.10;99.90
3996;DHT22;2012;49.794;9.722;2022-08-19T11:27:41;24.10;99.90
3996;DHT22;2012;49.794;9.722;2022-08-19T11:30:11;24.10;99.90
3996;DHT22;2012;49.794;9.722;2022-08-19T11:32:42;24.30;99.90
3996;DHT22;2012;49.794;9.722;2022-08-19T11:35:15;24.40;99.90
3996;DHT22;2012;49.794;9.722;2022-08-19T11:37:42;24.40;99.90
3996;DHT22;2012;49.794;9.722;2022-08-19T11:40:09;24.40;99.90
3996;DHT22;2012;49.794;9.722;2022-08-19T11:42:36;24.40;99.90
3996;DHT22;2012;49.794;9.722;2022-08-19T11:45:26;24.50;99.90
3996;DHT22;2012;49.794;9.722;2022-08-19T11:47:54;24.50;99.90
3996;DHT22;2012;49.794;9.722;2022-08-19T11:50:22;24.70;99.90
3996;DHT22;2012;49.794;9.722;2022-08-19T11:52:50;24.70;99.90
3996;DHT22;2012;49.794;9.722;2022-08-19T11:55:20;24.80;99.90
3996;DHT22;2012;49.794;9.722;2022-08-19T11:57:47;24.80;99.90
3996;DHT22;2012;49.794;9.722;2022-08-19T12:00:14;24.90;99.90
3996;DHT22;2012;49.794;9.722;2022-08-19T12:02:41;24.90;99.70
3996;DHT22;2012;49.794;9.722;2022-08-19T12:05:09;24.90;99.90
3996;DHT22;2012;49.794;9.722;2022-08-19T12:07:39;24.90;99.90
3996;DHT22;2012;49.794;9.722;2022-08-19T12:10:10;24.90;99.20
3996;DHT22;2012;49.794;9.722;2022-08-19T12:12:37;24.80;98.90
3996;DHT22;2012;49.794;9.722;2022-08-19T12:15:10;24.80;98.90
3996;DHT22;2012;49.794;9.722;2022-08-19T12:17:37;24.80;99.20
3996;DHT22;2012;49.794;9.722;2022-08-19T12:20:05;24.90;99.40
3996;DHT22;2012;49.794;9.722;2022-08-19T12:22:33;24.90;99.00
3996;DHT22;2012;49.794;9.722;2022-08-19T12:25:00;24.80;98.70
3996;DHT22;2012;49.794;9.722;2022-08-19T12:27:27;24.80;98.00
3996;DHT22;2012;49.794;9.722;2022-08-19T12:30:08;24.80;98.10
3996;DHT22;2012;49.794;9.722;2022-08-19T12:32:36;24.70;98.10
3996;DHT22;2012;49.794;9.722;2022-08-19T12:35:03;24.80;98.40
3996;DHT22;2012;49.794;9.722;2022-08-19T12:37:30;24.80;98.60
3996;DHT22;2012;49.794;9.722;2022-08-19T12:39:59;24.70;98.40
3996;DHT22;2012;49.794;9.722;2022-08-19T12:42:26;24.80;99.10
3996;DHT22;2012;49.794;9.722;2022-08-19T12:44:53;24.80;98.50
3996;DHT22;2012;49.794;9.722;2022-08-19T12:47:19;24.80;98.50
3996;DHT22;2012;49.794;9.722;2022-08-19T12:49:48;24.80;98.30
3996;DHT22;2012;49.794;9.722;2022-08-19T12:52:21;24.90;98.20
3996;DHT22;2012;49.794;9.722;2022-08-19T12:54:50;24.90;98.70
3996;DHT22;2012;49.794;9.722;2022-08-19T12:57:22;24.80;98.50
3996;DHT22;2012;49.794;9.722;2022-08-19T12:59:59;24.70;97.80
3996;DHT22;2012;49.794;9.722;2022-08-19T13:02:26;24.70;97.90
3996;DHT22;2012;49.794;9.722;2022-08-19T13:04:53;24.70;97.40
3996;DHT22;2012;49.794;9.722;2022-08-19T13:07:20;24.70;97.70
3996;DHT22;2012;49.794;9.722;2022-08-19T13:09:47;24.70;98.80
3996;DHT22;2012;49.794;9.722;2022-08-19T13:12:13;24.60;97.90
3996;DHT22;2012;49.794;9.722;2022-08-19T13:14:41;24.70;97.70
3996;DHT22;2012;49.794;9.722;2022-08-19T13:17:08;24.70;97.80
3996;DHT22;2012;49.794;9.722;2022-08-19T13:19:36;24.70;97.30
3996;DHT22;2012;49.794;9.722;2022-08-19T13:22:03;24.80;97.20
3996;DHT22;2012;49.794;9.722;2022-08-19T13:24:38;24.80;97.10
3996;DHT22;2012;49.794;9.722;2022-08-19T13:27:10;24.70;97.60
3996;DHT22;2012;49.794;9.722;2022-08-19T13:29:42;24.70;97.50
3996;DHT22;2012;49.794;9.722;2022-08-19T13:32:29;24.80;97.40
3996;DHT22;2012;49.794;9.722;2022-08-19T13:35:16;24.80;96.20
3996;DHT22;2012;49.794;9.722;2022-08-19T13:37:43;24.80;95.70
3996;DHT22;2012;49.794;9.722;2022-08-19T13:40:18;24.90;96.20
3996;DHT22;2012;49.794;9.722;2022-08-19T13:42:48;25.00;96.10
3996;DHT22;2012;49.794;9.722;2022-08-19T13:45:20;25.20;95.90
3996;DHT22;2012;49.794;9.722;2022-08-19T13:47:52;25.20;95.20
3996;DHT22;2012;49.794;9.722;2022-08-19T13:50:28;25.30;96.00
3996;DHT22;2012;49.794;9.722;2022-08-19T13:52:55;25.50;95.30
3996;DHT22;2012;49.794;9.722;2022-08-19T13:55:23;25.60;95.20
3996;DHT22;2012;49.794;9.722;2022-08-19T13:57:57;25.60;94.70
3996;DHT22;2012;49.794;9.722;2022-08-19T14:00:26;25.60;95.20
3996;DHT22;2012;49.794;9.722;2022-08-19T14:02:55;25.60;95.10
3996;DHT22;2012;49.794;9.722;2022-08-19T14:05:23;25.60;94.90
3996;DHT22;2012;49.794;9.722;2022-08-19T14:07:50;25.60;94.70
3996;DHT22;2012;49.794;9.722;2022-08-19T14:10:17;25.60;94.90
3996;DHT22;2012;49.794;9.722;2022-08-19T14:12:45;25.60;95.40
3996;DHT22;2012;49.794;9.722;2022-08-19T14:15:13;25.70;96.10
3996;DHT22;2012;49.794;9.722;2022-08-19T14:17:42;25.80;95.20
3996;DHT22;2012;49.794;9.722;2022-08-19T14:20:11;25.80;95.10
3996;DHT22;2012;49.794;9.722;2022-08-19T14:22:45;26.00;94.50
3996;DHT22;2012;49.794;9.722;2022-08-19T14:25:20;26.20;94.70
3996;DHT22;2012;49.794;9.722;2022-08-19T14:27:47;26.60;93.30
3996;DHT22;2012;49.794;9.722;2022-08-19T14:30:18;26.70;92.70
3996;DHT22;2012;49.794;9.722;2022-08-19T14:32:45;26.70;92.20
3996;DHT22;2012;49.794;9.722;2022-08-19T14:35:13;26.70;91.80
3996;DHT22;2012;49.794;9.722;2022-08-19T14:37:42;26.80;91.90
3996;DHT22;2012;49.794;9.722;2022-08-19T14:40:14;26.80;92.50
3996;DHT22;2012;49.794;9.722;2022-08-19T14:42:41;26.70;91.80
3996;DHT22;2012;49.794;9.722;2022-08-19T14:45:10;26.70;91.50
3996;DHT22;2012;49.794;9.722;2022-08-19T14:47:37;26.70;91.70
3996;DHT22;2012;49.794;9.722;2022-08-19T14:50:12;26.60;90.60
3996;DHT22;2012;49.794;9.722;2022-08-19T14:52:47;26.50;89.70
3996;DHT22;2012;49.794;9.722;2022-08-19T14:55:17;26.50;91.00
3996;DHT22;2012;49.794;9.722;2022-08-19T14:57:45;26.50;90.50
3996;DHT22;2012;49.794;9.722;2022-08-19T15:00:12;26.30;90.30
3996;DHT22;2012;49.794;9.722;2022-08-19T15:02:40;26.30;90.20
3996;DHT22;2012;49.794;9.722;2022-08-19T15:05:08;26.30;90.60
3996;DHT22;2012;49.794;9.722;2022-08-19T15:07:35;26.20;90.60
3996;DHT22;2012;49.794;9.722;2022-08-19T15:10:02;26.10;90.60
3996;DHT22;2012;49.794;9.722;2022-08-19T15:12:29;26.10;91.20
3996;DHT22;2012;49.794;9.722;2022-08-19T15:14:56;26.00;91.10
3996;DHT22;2012;49.794;9.722;2022-08-19T15:17:23;26.10;91.30
3996;DHT22;2012;49.794;9.722;2022-08-19T15:20:14;26.00;91.90
3996;DHT22;2012;49.794;9.722;2022-08-19T15:22:41;26.00;91.90
3996;DHT22;2012;49.794;9.722;2022-08-19T15:25:10;25.90;92.10
3996;DHT22;2012;49.794;9.722;2022-08-19T15:27:38;26.00;92.80
3996;DHT22;2012;49.794;9.722;2022-08-19T15:30:09;25.90;92.30
3996;DHT22;2012;49.794;9.722;2022-08-19T15:32:37;25.90;92.00
3996;DHT22;2012;49.794;9.722;2022-08-19T15:35:05;25.90;92.60
3996;DHT22;2012;49.794;9.722;2022-08-19T15:37:32;25.90;92.70
3996;DHT22;2012;49.794;9.722;2022-08-19T15:40:04;25.80;91.40
3996;DHT22;2012;49.794;9.722;2022-08-19T15:42:32;25.80;91.30
3996;DHT22;2012;49.794;9.722;2022-08-19T15:44:58;25.80;91.60
3996;DHT22;2012;49.794;9.722;2022-08-19T15:47:28;25.90;92.10
3996;DHT22;2012;49.794;9.722;2022-08-19T15:50:08;25.90;92.40
3996;DHT22;2012;49.794;9.722;2022-08-19T15:52:52;25.90;92.70
3996;DHT22;2012;49.794;9.722;2022-08-19T15:55:28;25.90;92.00
3996;DHT22;2012;49.794;9.722;2022-08-19T15:58:05;25.90;91.80
3996;DHT22;2012;49.794;9.722;2022-08-19T16:00:58;25.90;91.20
3996;DHT22;2012;49.794;9.722;2022-08-19T16:03:47;25.90;91.30
3996;DHT22;2012;49.794;9.722;2022-08-19T16:06:45;25.90;91.70
3996;DHT22;2012;49.794;9.722;2022-08-19T16:09:12;25.90;91.80
3996;DHT22;2012;49.794;9.722;2022-08-19T16:11:41;25.90;90.90
3996;DHT22;2012;49.794;9.722;2022-08-19T16:14:14;25.90;91.10
3996;DHT22;2012;49.794;9.722;2022-08-19T16:16:41;25.90;91.00
3996;DHT22;2012;49.794;9.722;2022-08-19T16:19:14;26.00;91.30
3996;DHT22;2012;49.794;9.722;2022-08-19T16:21:46;25.90;90.80
3996;DHT22;2012;49.794;9.722;2022-08-19T16:24:16;25.90;91.10
3996;DHT22;2012;49.794;9.722;2022-08-19T16:26:44;25.80;91.70
3996;DHT22;2012;49.794;9.722;2022-08-19T16:29:12;25.80;91.80
3996;DHT22;2012;49.794;9.722;2022-08-19T16:31:40;25.80;91.30